createdAt,value
2022-08-17T00:01:52.018Z,26.86
2022-08-17T00:04:21.835Z,26.87
2022-08-17T00:06:50.953Z,26.89
2022-08-17T00:09:19.580Z,26.91
2022-08-17T00:12:40.724Z,26.88
2022-08-17T00:14:40.076Z,27.13
2022-08-17T00:17:09.629Z,27.05
2022-08-17T00:19:38.287Z,26.85
2022-08-17T00:22:31.671Z,26.88
2022-08-17T00:24:56.054Z,26.84
2022-08-17T00:27:24.570Z,26.86
2022-08-17T00:29:54.480Z,26.87
2022-08-17T00:33:10.817Z,26.85
2022-08-17T00:35:12.902Z,26.86
2022-08-17T00:37:41.789Z,26.85
2022-08-17T00:40:12.702Z,26.85
2022-08-17T00:42:41.473Z,26.88
2022-08-17T00:45:13.820Z,27.00
2022-08-17T00:47:42.373Z,27.01
2022-08-17T00:50:15.355Z,27.03
2022-08-17T00:52:49.627Z,26.95
2022-08-17T00:55:18.360Z,26.86
2022-08-17T00:57:50.330Z,26.81
2022-08-17T01:00:26.770Z,26.82
2022-08-17T01:02:59.235Z,26.82
2022-08-17T01:05:30.005Z,26.94
2022-08-17T01:07:59.003Z,26.88
2022-08-17T01:11:00.144Z,26.82
2022-08-17T01:13:20.955Z,26.82
2022-08-17T01:15:53.728Z,26.84
2022-08-17T01:18:22.228Z,26.88
2022-08-17T01:20:53.711Z,27.10
2022-08-17T01:23:25.132Z,27.17
2022-08-17T01:25:56.549Z,27.15
2022-08-17T01:28:33.592Z,27.21
2022-08-17T01:31:14.305Z,26.93
2022-08-17T01:33:42.826Z,26.80
2022-08-17T01:36:11.387Z,26.78
2022-08-17T01:38:41.458Z,26.80
2022-08-17T01:41:12.640Z,26.79
2022-08-17T01:43:44.693Z,27.05
2022-08-17T01:46:16.674Z,27.04
2022-08-17T01:48:47.595Z,26.97
2022-08-17T01:51:16.687Z,26.98
2022-08-17T01:53:50.057Z,27.23
2022-08-17T01:56:22.468Z,27.17
2022-08-17T01:58:51.008Z,27.06
2022-08-17T02:01:21.489Z,27.10
2022-08-17T02:03:59.162Z,27.12
2022-08-17T02:06:31.641Z,27.04
2022-08-17T02:09:25.144Z,27.05
2022-08-17T02:11:54.653Z,27.10
2022-08-17T02:14:23.437Z,26.99
2022-08-17T02:16:52.107Z,26.85
2022-08-17T02:19:21.989Z,26.82
2022-08-17T02:21:54.239Z,26.81
2022-08-17T02:24:58.026Z,26.78
2022-08-17T02:27:15.424Z,26.76
2022-08-17T02:29:43.866Z,26.76
2022-08-17T02:32:20.861Z,26.76
2022-08-17T02:34:57.286Z,26.77
2022-08-17T02:37:26.228Z,26.76
2022-08-17T02:39:57.156Z,26.90
2022-08-17T02:42:28.926Z,26.78
2022-08-17T02:44:57.412Z,26.70
2022-08-17T02:47:26.882Z,26.71
2022-08-17T02:49:55.881Z,26.70
2022-08-17T02:52:42.907Z,26.75
2022-08-17T02:55:15.925Z,26.92
2022-08-17T02:57:44.502Z,26.76
2022-08-17T03:00:17.388Z,26.64
2022-08-17T03:02:46.287Z,26.67
2022-08-17T03:05:17.015Z,26.74
2022-08-17T03:07:45.559Z,26.74
2022-08-17T03:10:16.490Z,26.74
2022-08-17T03:12:45.243Z,26.96
2022-08-17T03:15:16.819Z,26.83
2022-08-17T03:17:45.730Z,26.68
2022-08-17T03:20:14.485Z,26.69
2022-08-17T03:22:47.820Z,26.70
2022-08-17T03:25:26.152Z,26.68
2022-08-17T03:27:55.122Z,26.66
2022-08-17T03:30:23.805Z,26.64
2022-08-17T03:32:54.721Z,26.64
2022-08-17T03:35:26.320Z,26.66
2022-08-17T03:38:00.514Z,26.68
2022-08-17T03:40:34.779Z,26.70
2022-08-17T03:43:19.725Z,26.64
2022-08-17T03:46:27.312Z,26.66
2022-08-17T03:49:12.895Z,26.71
2022-08-17T03:51:58.857Z,26.66
2022-08-17T03:54:44.938Z,26.59
2022-08-17T03:57:14.771Z,26.61
2022-08-17T03:59:43.194Z,26.75
2022-08-17T04:02:17.214Z,26.74
2022-08-17T04:04:45.690Z,26.86
2022-08-17T04:07:14.184Z,26.82
2022-08-17T04:09:43.979Z,26.65
2022-08-17T04:12:14.014Z,26.86
2022-08-17T04:14:53.637Z,26.92
2022-08-17T04:17:26.466Z,26.98
2022-08-17T04:19:55.436Z,27.10
2022-08-17T04:22:32.508Z,26.86
2022-08-17T04:25:11.013Z,26.87
2022-08-17T04:27:41.052Z,27.01
2022-08-17T04:30:11.438Z,26.98
2022-08-17T04:33:05.270Z,26.95
2022-08-17T04:35:37.878Z,26.74
2022-08-17T04:38:06.541Z,26.63
2022-08-17T04:40:52.830Z,26.58
2022-08-17T04:43:24.645Z,26.62
2022-08-17T04:45:56.253Z,26.71
2022-08-17T04:48:35.822Z,26.82
2022-08-17T04:51:09.907Z,26.94
2022-08-17T04:53:40.395Z,26.72
2022-08-17T04:56:16.045Z,26.68
2022-08-17T04:58:49.831Z,26.70
2022-08-17T05:01:23.236Z,26.72
2022-08-17T05:03:53.570Z,26.92
2022-08-17T05:06:22.126Z,26.99
2022-08-17T05:08:50.885Z,26.92
2022-08-17T05:11:19.412Z,26.83
2022-08-17T05:13:50.463Z,26.85
2022-08-17T05:16:22.099Z,26.79
2022-08-17T05:18:50.655Z,26.78
2022-08-17T05:21:19.373Z,26.74
2022-08-17T05:23:54.835Z,26.69
2022-08-17T05:26:26.845Z,26.72
2022-08-17T05:29:00.618Z,26.77
2022-08-17T05:31:32.061Z,26.69
2022-08-17T05:34:00.573Z,26.61
2022-08-17T05:36:43.212Z,26.60
2022-08-17T05:39:16.398Z,26.73
2022-08-17T05:41:48.578Z,26.66
2022-08-17T05:44:18.632Z,26.70
2022-08-17T05:46:50.222Z,26.73
2022-08-17T05:49:20.639Z,26.83
2022-08-17T05:52:11.741Z,26.76
2022-08-17T05:54:48.636Z,26.70
2022-08-17T05:57:33.593Z,26.73
2022-08-17T06:00:11.361Z,26.73
2022-08-17T06:02:59.154Z,26.62
2022-08-17T06:05:41.498Z,26.66
2022-08-17T06:08:14.175Z,26.69
2022-08-17T06:10:46.597Z,26.69
2022-08-17T06:13:20.170Z,26.72
2022-08-17T06:15:56.430Z,26.64
2022-08-17T06:18:27.062Z,26.64
2022-08-17T06:20:58.823Z,26.69
2022-08-17T06:23:31.782Z,26.72
2022-08-17T06:26:05.291Z,26.74
2022-08-17T06:28:38.299Z,26.64
2022-08-17T06:31:13.575Z,26.65
2022-08-17T06:33:46.466Z,26.65
2022-08-17T06:36:29.390Z,26.51
2022-08-17T06:39:05.405Z,26.46
2022-08-17T06:41:39.176Z,26.66
2022-08-17T06:44:43.179Z,26.55
2022-08-17T06:47:10.561Z,26.62
2022-08-17T06:49:44.429Z,26.53
2022-08-17T06:52:37.130Z,26.50
2022-08-17T06:55:18.009Z,26.62
2022-08-17T06:57:54.895Z,26.58
2022-08-17T07:00:25.147Z,26.51
2022-08-17T07:02:58.082Z,26.66
2022-08-17T07:05:33.372Z,26.70
2022-08-17T07:08:05.048Z,26.60
2022-08-17T07:10:40.278Z,26.66
2022-08-17T07:13:26.537Z,26.73
2022-08-17T07:15:58.639Z,26.68
2022-08-17T07:18:28.884Z,26.63
2022-08-17T07:21:01.220Z,26.64
2022-08-17T07:23:38.737Z,26.61
2022-08-17T07:26:07.669Z,26.72
2022-08-17T07:28:36.612Z,26.71
2022-08-17T07:31:05.127Z,26.62
2022-08-17T07:33:39.433Z,26.60
2022-08-17T07:36:29.598Z,26.62
2022-08-17T07:38:59.058Z,26.74
2022-08-17T07:41:27.886Z,26.81
2022-08-17T07:44:17.526Z,26.79
2022-08-17T07:47:22.956Z,26.82
2022-08-17T07:49:53.334Z,26.83
2022-08-17T07:52:50.251Z,26.80
2022-08-17T07:55:28.016Z,26.70
2022-08-17T07:57:57.486Z,26.62
2022-08-17T08:00:32.284Z,26.54
2022-08-17T08:03:06.490Z,26.69
2022-08-17T08:05:49.336Z,26.80
2022-08-17T08:08:32.084Z,26.66
2022-08-17T08:11:05.411Z,26.72
2022-08-17T08:13:33.998Z,26.82
2022-08-17T08:16:24.608Z,27.67
2022-08-17T08:18:57.275Z,27.68
2022-08-17T08:21:38.094Z,26.86
2022-08-17T08:24:23.098Z,26.78
2022-08-17T08:26:57.781Z,26.67
2022-08-17T08:29:37.310Z,26.68
2022-08-17T08:32:10.633Z,27.03
2022-08-17T08:35:02.743Z,26.79
2022-08-17T08:37:43.126Z,26.73
2022-08-17T08:40:35.790Z,26.64
2022-08-17T08:43:11.299Z,26.73
2022-08-17T08:45:47.049Z,26.74
2022-08-17T08:48:52.933Z,26.70
2022-08-17T08:51:15.744Z,26.77
2022-08-17T08:53:50.788Z,26.76
2022-08-17T08:56:24.758Z,26.82
2022-08-17T08:58:57.273Z,26.89
2022-08-17T09:01:29.476Z,26.85
2022-08-17T09:04:23.277Z,26.76
2022-08-17T09:07:01.994Z,26.82
2022-08-17T09:09:40.048Z,26.87
2022-08-17T09:12:14.039Z,26.80
2022-08-17T09:14:47.018Z,26.78
2022-08-17T09:17:19.460Z,26.77
2022-08-17T09:19:50.674Z,26.74
2022-08-17T09:22:34.959Z,26.75
2022-08-17T09:25:11.231Z,26.79
2022-08-17T09:27:50.042Z,26.84
2022-08-17T09:30:19.577Z,26.88
2022-08-17T09:32:55.437Z,26.94
2022-08-17T09:35:32.758Z,26.99
2022-08-17T09:38:12.515Z,26.96
2022-08-17T09:40:48.226Z,26.98
2022-08-17T09:43:30.678Z,27.01
2022-08-17T09:46:03.008Z,26.98
2022-08-17T09:48:34.971Z,26.97
2022-08-17T09:51:08.112Z,27.02
2022-08-17T09:53:38.081Z,27.04
2022-08-17T09:56:30.268Z,27.01
2022-08-17T09:59:22.226Z,27.08
2022-08-17T10:01:56.091Z,27.05
2022-08-17T10:04:40.968Z,27.06
2022-08-17T10:07:16.512Z,27.07
2022-08-17T10:09:55.776Z,27.10
2022-08-17T10:12:36.735Z,27.14
2022-08-17T10:15:23.515Z,27.12
2022-08-17T10:18:18.978Z,27.10
2022-08-17T10:21:16.281Z,27.07
2022-08-17T10:24:02.219Z,27.10
2022-08-17T10:26:55.681Z,27.10
2022-08-17T10:29:25.079Z,27.11
2022-08-17T10:32:00.933Z,27.12
2022-08-17T10:35:00.090Z,27.14
2022-08-17T10:37:52.276Z,27.20
2022-08-17T10:40:28.685Z,27.19
2022-08-17T10:43:00.446Z,27.23
2022-08-17T10:45:35.045Z,27.29
2022-08-17T10:48:30.841Z,27.39
2022-08-17T10:51:02.736Z,27.62
2022-08-17T10:53:58.101Z,27.40
2022-08-17T10:56:50.482Z,27.42
2022-08-17T10:59:55.512Z,27.61
2022-08-17T11:02:28.204Z,27.46
2022-08-17T11:05:34.488Z,27.35
2022-08-17T11:08:31.186Z,27.39
2022-08-17T11:11:14.205Z,27.70
2022-08-17T11:13:48.741Z,27.62
2022-08-17T11:16:45.793Z,27.46
2022-08-17T11:19:45.180Z,27.56
2022-08-17T11:22:47.436Z,27.65
2022-08-17T11:25:17.925Z,27.68
2022-08-17T11:27:53.856Z,27.59
2022-08-17T11:30:48.604Z,27.47
2022-08-17T11:34:06.445Z,27.43
2022-08-17T11:37:16.331Z,27.45
2022-08-17T11:40:33.942Z,27.43
2022-08-17T11:43:55.618Z,27.41
2022-08-17T11:46:53.990Z,27.42
2022-08-17T11:49:57.835Z,27.47
2022-08-17T11:52:42.250Z,27.49
2022-08-17T11:56:02.616Z,27.39
2022-08-17T11:58:37.568Z,27.44
2022-08-17T12:01:07.492Z,27.45
2022-08-17T12:03:55.421Z,27.48
2022-08-17T12:06:46.074Z,27.53
2022-08-17T12:09:19.631Z,27.47
2022-08-17T12:12:01.607Z,27.53
2022-08-17T12:15:08.353Z,27.49
2022-08-17T12:17:41.207Z,27.51
2022-08-17T12:20:19.575Z,27.55
2022-08-17T12:22:54.945Z,27.57
2022-08-17T12:25:32.978Z,27.63
2022-08-17T12:28:06.913Z,27.67
2022-08-17T12:30:36.560Z,27.62
2022-08-17T12:33:10.986Z,27.63
2022-08-17T12:35:40.090Z,27.72
2022-08-17T12:38:26.708Z,27.67
2022-08-17T12:41:21.709Z,27.72
2022-08-17T12:44:01.693Z,27.78
2022-08-17T12:46:33.691Z,27.79
2022-08-17T12:49:16.870Z,27.73
2022-08-17T12:51:46.680Z,27.74
2022-08-17T12:54:33.691Z,27.67
2022-08-17T12:57:08.769Z,27.69
2022-08-17T12:59:43.256Z,27.69
2022-08-17T13:02:23.585Z,27.64
2022-08-17T13:04:52.037Z,27.62
2022-08-17T13:07:34.183Z,27.65
2022-08-17T13:10:02.872Z,27.65
2022-08-17T13:12:34.990Z,27.67
2022-08-17T13:15:03.468Z,27.66
2022-08-17T13:17:35.909Z,27.72
2022-08-17T13:20:06.802Z,27.65
2022-08-17T13:22:35.362Z,27.68
2022-08-17T13:25:08.560Z,27.72
2022-08-17T13:27:38.515Z,27.72
2022-08-17T13:30:11.959Z,27.75
2022-08-17T13:32:44.107Z,27.73
2022-08-17T13:35:44.236Z,27.92
2022-08-17T13:38:36.081Z,27.86
2022-08-17T13:41:06.422Z,27.78
2022-08-17T13:43:49.678Z,27.74
2022-08-17T13:46:21.290Z,27.75
2022-08-17T13:49:00.452Z,27.79
2022-08-17T13:51:37.289Z,27.81
2022-08-17T13:54:27.092Z,27.91
2022-08-17T13:57:01.645Z,27.99
2022-08-17T13:59:55.029Z,27.92
2022-08-17T14:02:26.631Z,27.96
2022-08-17T14:04:58.433Z,28.00
2022-08-17T14:07:34.131Z,28.04
2022-08-17T14:10:10.222Z,27.98
2022-08-17T14:12:39.938Z,28.01
2022-08-17T14:15:11.808Z,28.07
2022-08-17T14:17:40.264Z,27.88
2022-08-17T14:20:11.863Z,27.82
2022-08-17T14:22:41.690Z,27.86
2022-08-17T14:25:12.010Z,27.81
2022-08-17T14:27:41.772Z,27.82
2022-08-17T14:30:24.573Z,27.85
2022-08-17T14:32:53.505Z,27.89
2022-08-17T14:35:23.301Z,27.90
2022-08-17T14:37:53.128Z,27.95
2022-08-17T14:40:24.660Z,27.89
2022-08-17T14:42:55.289Z,27.97
2022-08-17T14:45:29.570Z,27.83
2022-08-17T14:48:04.288Z,28.10
2022-08-17T14:50:35.696Z,28.11
2022-08-17T14:53:05.509Z,28.23
2022-08-17T14:55:34.412Z,28.25
2022-08-17T14:58:04.042Z,28.19
2022-08-17T15:00:34.099Z,28.31
2022-08-17T15:03:02.704Z,28.51
2022-08-17T15:05:33.688Z,28.72
2022-08-17T15:08:02.764Z,28.51
2022-08-17T15:10:31.565Z,28.36
2022-08-17T15:13:00.417Z,28.31
2022-08-17T15:15:29.395Z,28.42
2022-08-17T15:17:59.879Z,28.27
2022-08-17T15:20:31.020Z,28.36
2022-08-17T15:22:59.584Z,28.41
2022-08-17T15:25:29.801Z,28.45
2022-08-17T15:27:58.411Z,28.40
2022-08-17T15:30:27.260Z,28.39
2022-08-17T15:32:57.167Z,28.44
2022-08-17T15:35:29.481Z,28.43
2022-08-17T15:38:08.108Z,28.35
2022-08-17T15:40:40.987Z,28.34
2022-08-17T15:43:11.509Z,28.35
2022-08-17T15:45:40.383Z,28.41
2022-08-17T15:48:09.030Z,28.33
2022-08-17T15:50:38.818Z,28.42
2022-08-17T15:53:07.219Z,28.69
2022-08-17T15:55:36.759Z,28.85
2022-08-17T15:58:05.428Z,28.76
2022-08-17T16:00:43.508Z,28.65
2022-08-17T16:04:01.359Z,28.36
2022-08-17T16:06:11.872Z,28.77
2022-08-17T16:08:43.493Z,28.79
2022-08-17T16:11:12.524Z,28.85
2022-08-17T16:13:41.664Z,28.77
2022-08-17T16:16:16.071Z,28.57
2022-08-17T16:18:44.693Z,28.70
2022-08-17T16:21:27.762Z,28.70
2022-08-17T16:23:58.427Z,28.61
2022-08-17T16:26:26.991Z,28.74
2022-08-17T16:28:56.032Z,28.63
2022-08-17T16:31:24.882Z,28.59
2022-08-17T16:34:08.992Z,28.46
2022-08-17T16:36:55.744Z,28.60
2022-08-17T16:39:27.188Z,28.70
2022-08-17T16:41:56.239Z,28.64
2022-08-17T16:44:26.012Z,28.60
2022-08-17T16:46:54.831Z,28.59
2022-08-17T16:49:23.366Z,28.63
2022-08-17T16:52:10.093Z,28.52
2022-08-17T16:54:40.645Z,28.41
2022-08-17T16:57:09.533Z,28.41
2022-08-17T16:59:40.994Z,28.45
2022-08-17T17:02:14.598Z,28.79
2022-08-17T17:04:50.256Z,28.74
2022-08-17T17:08:00.915Z,28.69
2022-08-17T17:10:34.317Z,28.65
2022-08-17T17:13:04.558Z,28.67
2022-08-17T17:15:53.612Z,28.60
2022-08-17T17:18:24.317Z,28.55
2022-08-17T17:20:57.956Z,28.59
2022-08-17T17:23:46.117Z,28.53
2022-08-17T17:26:28.885Z,28.58
2022-08-17T17:29:12.070Z,28.59
2022-08-17T17:31:45.396Z,28.60
2022-08-17T17:34:16.098Z,28.51
2022-08-17T17:36:48.164Z,28.49
2022-08-17T17:39:20.260Z,28.43
2022-08-17T17:41:51.813Z,28.40
2022-08-17T17:44:25.658Z,28.40
2022-08-17T17:46:59.526Z,28.30
2022-08-17T17:49:29.139Z,28.30
2022-08-17T17:52:11.108Z,28.28
2022-08-17T17:54:57.130Z,28.34
2022-08-17T17:57:33.129Z,28.39
2022-08-17T18:00:08.012Z,28.38
2022-08-17T18:02:51.417Z,28.35
2022-08-17T18:05:36.365Z,28.29
2022-08-17T18:08:12.597Z,28.28
2022-08-17T18:10:49.163Z,28.25
2022-08-17T18:13:22.938Z,28.24
2022-08-17T18:15:55.445Z,28.25
2022-08-17T18:18:37.866Z,28.23
2022-08-17T18:21:15.674Z,28.22
2022-08-17T18:23:57.403Z,28.20
2022-08-17T18:26:44.700Z,28.20
2022-08-17T18:29:27.067Z,28.18
2022-08-17T18:32:38.552Z,28.22
2022-08-17T18:35:32.681Z,28.19
2022-08-17T18:38:24.129Z,28.26
2022-08-17T18:41:05.643Z,28.29
2022-08-17T18:43:53.142Z,28.32
2022-08-17T18:46:29.247Z,28.29
2022-08-17T18:49:00.044Z,28.28
2022-08-17T18:51:40.619Z,28.23
2022-08-17T18:54:18.541Z,28.22
2022-08-17T18:56:54.138Z,28.18
2022-08-17T18:59:39.435Z,28.14
2022-08-17T19:02:45.220Z,28.11
2022-08-17T19:05:13.601Z,28.09
2022-08-17T19:07:43.789Z,28.10
2022-08-17T19:10:20.418Z,28.08
2022-08-17T19:12:53.082Z,28.11
2022-08-17T19:15:28.064Z,28.08
2022-08-17T19:18:00.502Z,28.12
2022-08-17T19:20:33.319Z,28.08
2022-08-17T19:23:08.045Z,28.11
2022-08-17T19:25:40.777Z,28.08
2022-08-17T19:28:21.815Z,28.22
2022-08-17T19:30:57.793Z,28.24
2022-08-17T19:33:26.696Z,28.25
2022-08-17T19:36:04.600Z,28.16
2022-08-17T19:38:43.545Z,28.23
2022-08-17T19:41:20.613Z,28.23
2022-08-17T19:44:07.920Z,28.18
2022-08-17T19:46:48.530Z,28.26
2022-08-17T19:49:33.503Z,28.22
2022-08-17T19:52:24.195Z,28.20
2022-08-17T19:54:56.393Z,28.19
2022-08-17T19:57:33.124Z,28.25
2022-08-17T20:00:05.831Z,28.27
2022-08-17T20:02:38.811Z,28.23
2022-08-17T20:05:09.842Z,28.23
2022-08-17T20:07:44.735Z,28.20
2022-08-17T20:10:17.271Z,28.26
2022-08-17T20:12:45.905Z,28.25
2022-08-17T20:15:18.981Z,28.18
2022-08-17T20:17:48.935Z,28.15
2022-08-17T20:20:25.959Z,28.20
2022-08-17T20:22:59.638Z,28.17
2022-08-17T20:25:34.699Z,28.17
2022-08-17T20:28:06.840Z,28.20
2022-08-17T20:30:41.010Z,28.13
2022-08-17T20:33:24.846Z,28.09
2022-08-17T20:36:17.291Z,28.11
2022-08-17T20:38:50.406Z,28.16
2022-08-17T20:41:21.019Z,28.13
2022-08-17T20:44:03.031Z,28.17
2022-08-17T20:46:53.218Z,28.14
2022-08-17T20:49:27.841Z,28.16
2022-08-17T20:52:02.527Z,28.14
2022-08-17T20:54:48.929Z,28.14
2022-08-17T20:57:48.872Z,28.11
2022-08-17T21:00:47.793Z,28.06
2022-08-17T21:03:50.242Z,28.04
2022-08-17T21:06:26.123Z,28.03
2022-08-17T21:08:59.088Z,28.00
2022-08-17T21:12:04.504Z,27.97
2022-08-17T21:15:00.909Z,28.00
2022-08-17T21:17:41.934Z,28.02
2022-08-17T21:20:32.258Z,27.97
2022-08-17T21:23:40.476Z,27.96
2022-08-17T21:26:28.103Z,27.95
2022-08-17T21:29:30.014Z,28.07
2022-08-17T21:32:24.481Z,27.95
2022-08-17T21:35:30.143Z,27.98
2022-08-17T21:38:04.454Z,27.94
2022-08-17T21:40:34.691Z,27.97
2022-08-17T21:43:23.701Z,27.93
2022-08-17T21:45:59.868Z,27.96
2022-08-17T21:48:29.402Z,27.92
2022-08-17T21:51:01.945Z,27.93
2022-08-17T21:53:37.904Z,27.93
2022-08-17T21:56:08.656Z,27.94
2022-08-17T21:58:40.661Z,27.96
2022-08-17T22:01:21.888Z,27.96
2022-08-17T22:04:05.652Z,27.93
2022-08-17T22:06:39.278Z,27.93
2022-08-17T22:09:19.379Z,27.88
2022-08-17T22:12:03.961Z,27.86
2022-08-17T22:14:52.466Z,27.84
2022-08-17T22:17:24.995Z,27.83
2022-08-17T22:19:56.435Z,27.85
2022-08-17T22:22:34.558Z,27.91
2022-08-17T22:25:05.296Z,27.91
2022-08-17T22:27:52.062Z,27.91
2022-08-17T22:30:33.228Z,27.96
2022-08-17T22:33:03.063Z,27.89
2022-08-17T22:35:40.237Z,27.91
2022-08-17T22:38:32.260Z,27.93
2022-08-17T22:41:27.732Z,27.85
2022-08-17T22:43:57.633Z,27.85
2022-08-17T22:46:26.845Z,27.76
2022-08-17T22:48:57.994Z,27.73
2022-08-17T22:51:29.957Z,27.74
2022-08-17T22:54:18.588Z,27.72
2022-08-17T22:57:11.549Z,27.72
2022-08-17T22:59:48.193Z,27.71
2022-08-17T23:02:25.594Z,27.70
2022-08-17T23:04:57.461Z,27.70
2022-08-17T23:07:26.153Z,27.71
2022-08-17T23:10:19.841Z,27.71
2022-08-17T23:12:48.503Z,27.72
2022-08-17T23:15:19.712Z,27.72
2022-08-17T23:17:48.304Z,27.72
2022-08-17T23:20:17.661Z,27.72
2022-08-17T23:22:51.418Z,27.71
2022-08-17T23:25:27.010Z,27.73
2022-08-17T23:27:55.877Z,27.74
2022-08-17T23:30:30.862Z,27.73
2022-08-17T23:33:01.389Z,27.72
2022-08-17T23:35:40.563Z,27.72
2022-08-17T23:38:10.553Z,27.70
2022-08-17T23:40:39.263Z,27.70
2022-08-17T23:43:17.580Z,27.69
2022-08-17T23:45:57.655Z,27.69
2022-08-17T23:48:27.819Z,27.69
2022-08-17T23:51:04.928Z,27.68
2022-08-17T23:53:35.093Z,27.67
2022-08-17T23:56:09.822Z,27.69
2022-08-17T23:58:40.134Z,27.67
